CheckWX is a tool to help pilots better visualize weather data.  It is not intended as a substitute for an official pre-flight weather briefing.

19:00:04 UTC

CYBK METAR
Baker Lake Airport
Baker Lake, Canada
Current

60 mins ago

CYBK 191800Z 21003KT 140V220 20SM IC SCT008 M34/M38 A2997 RMK ST3 SLP155
Observed
Feb-19 @ 18:00 UTC
Wind
  • 210° at 3 KTS
Visibility
20 SM
Flight Rules
VFR
Conditions
Ice crystals
Cloud Levels
  • Scattered at 800' AGL
Temperature
-34°C / -29°F
Dewpoint
-38°C / -36°F
Humidity
67%
Altimeter
29.97" Hg
Pressure
1015.5 hPa
Previous

2 hours ago

CYBK 191700Z 30006KT 250V030 20SM IC FEW008 M33/M37 A2996 RMK ST2 SLP152
Observed
Feb-19 @ 17:00 UTC
Wind
  • 300° at 6 KTS
Visibility
20 SM
Flight Rules
VFR
Conditions
Ice crystals
Cloud Levels
  • Few at 800' AGL
Temperature
-33°C / -27°F
Dewpoint
-37°C / -35°F
Humidity
67%
Altimeter
29.96" Hg
Pressure
1015.2 hPa
Previous

3 hours ago

CYBK 191603Z VRB03KT 20SM IC SCT008 M35/M39 A2996 RMK ST4 SLP151
Observed
Feb-19 @ 16:03 UTC
Wind
  • Variable at 3 KTS
Visibility
20 SM
Flight Rules
VFR
Conditions
Ice crystals
Cloud Levels
  • Scattered at 800' AGL
Temperature
-35°C / -31°F
Dewpoint
-39°C / -38°F
Humidity
67%
Altimeter
29.96" Hg
Pressure
1015.1 hPa